createdAt,value
2023-02-26T00:01:43.798Z,-2.70
2023-02-26T00:04:11.520Z,-2.80
2023-02-26T00:06:52.454Z,-2.80
2023-02-26T00:09:20.115Z,-2.90
2023-02-26T00:11:48.279Z,-2.90
2023-02-26T00:14:17.172Z,-2.90
2023-02-26T00:17:14.064Z,-3.00
2023-02-26T00:19:41.624Z,-3.00
2023-02-26T00:22:09.260Z,-2.90
2023-02-26T00:24:36.123Z,-3.00
2023-02-26T00:27:03.189Z,-3.10
2023-02-26T00:29:30.661Z,-3.20
2023-02-26T00:31:58.030Z,-3.20
2023-02-26T00:34:25.497Z,-3.30
2023-02-26T00:37:23.185Z,-3.30
2023-02-26T00:40:41.453Z,-3.30
2023-02-26T00:43:16.438Z,-3.50
2023-02-26T00:46:05.454Z,-3.50
2023-02-26T00:49:25.247Z,-3.60
2023-02-26T00:52:05.358Z,-3.60
2023-02-26T00:54:32.455Z,-3.60
2023-02-26T00:57:00.127Z,-3.60
2023-02-26T00:59:27.089Z,-3.60
2023-02-26T01:01:54.096Z,-3.70
2023-02-26T01:04:24.574Z,-3.70
2023-02-26T01:06:58.080Z,-3.80
2023-02-26T01:09:25.645Z,-3.90
2023-02-26T01:11:55.617Z,-4.00
2023-02-26T01:14:24.483Z,-3.90
2023-02-26T01:17:31.814Z,-3.90
2023-02-26T01:20:14.921Z,-3.90
2023-02-26T01:23:11.402Z,-3.90
2023-02-26T01:26:01.646Z,-4.00
2023-02-26T01:28:29.095Z,-4.10
2023-02-26T01:31:11.730Z,-4.10
2023-02-26T01:33:55.697Z,-4.00
2023-02-26T01:36:30.692Z,-3.90
2023-02-26T01:39:10.418Z,-4.00
2023-02-26T01:41:52.247Z,-4.00
2023-02-26T01:45:17.253Z,-4.00
2023-02-26T01:48:11.415Z,-4.10
2023-02-26T01:50:39.900Z,-4.10
2023-02-26T01:53:26.211Z,-4.10
2023-02-26T01:56:01.983Z,-4.30
2023-02-26T01:58:35.736Z,-4.40
2023-02-26T02:01:04.615Z,-4.50
2023-02-26T02:03:39.666Z,-4.70
2023-02-26T02:06:21.200Z,-4.80
2023-02-26T02:08:48.772Z,-5.00
2023-02-26T02:11:16.520Z,-5.00
2023-02-26T02:14:16.544Z,-4.90
2023-02-26T02:17:10.076Z,-4.90
2023-02-26T02:20:34.639Z,-4.90
2023-02-26T02:23:35.075Z,-4.90
2023-02-26T02:26:40.560Z,-4.90
2023-02-26T02:29:44.193Z,-5.00
2023-02-26T02:32:44.084Z,-5.20
2023-02-26T02:35:24.443Z,-5.20
2023-02-26T02:38:11.041Z,-5.30
2023-02-26T02:40:49.589Z,-5.20
2023-02-26T02:43:37.620Z,-5.20
2023-02-26T02:46:12.817Z,-5.20
2023-02-26T02:48:52.958Z,-5.30
2023-02-26T02:51:32.674Z,-5.30
2023-02-26T02:54:27.473Z,-5.30
2023-02-26T02:57:03.428Z,-5.30
2023-02-26T02:59:46.359Z,-5.30
2023-02-26T03:02:27.780Z,-5.30
2023-02-26T03:04:54.753Z,-5.40
2023-02-26T03:07:21.672Z,-5.40
2023-02-26T03:09:49.011Z,-5.50
2023-02-26T03:12:16.154Z,-5.70
2023-02-26T03:14:43.576Z,-5.80
2023-02-26T03:17:53.501Z,-5.80
2023-02-26T03:20:34.169Z,-5.80
2023-02-26T03:23:22.311Z,-5.90
2023-02-26T03:26:11.641Z,-5.90
2023-02-26T03:29:06.401Z,-6.00
2023-02-26T03:32:12.816Z,-5.80
2023-02-26T03:35:01.472Z,-5.70
2023-02-26T03:37:45.125Z,-5.60
2023-02-26T03:40:41.347Z,-5.50
2023-02-26T03:43:30.599Z,-5.40
2023-02-26T03:46:07.205Z,-5.50
2023-02-26T03:48:37.076Z,-5.60
2023-02-26T03:51:14.667Z,-5.70
2023-02-26T03:54:27.669Z,-5.80
2023-02-26T03:56:55.082Z,-5.90
2023-02-26T03:59:22.216Z,-5.90
2023-02-26T04:02:09.222Z,-6.00
2023-02-26T04:05:03.271Z,-5.90
2023-02-26T04:07:30.594Z,-5.80
2023-02-26T04:09:57.844Z,-5.70
2023-02-26T04:12:28.893Z,-5.70
2023-02-26T04:14:58.300Z,-5.60
2023-02-26T04:17:25.251Z,-5.60
2023-02-26T04:19:52.149Z,-5.50
2023-02-26T04:22:19.306Z,-5.30
2023-02-26T04:24:46.218Z,-4.90
2023-02-26T04:27:13.181Z,-4.80
2023-02-26T04:29:40.083Z,-4.80
2023-02-26T04:32:07.170Z,-4.80
2023-02-26T04:34:34.223Z,-4.90
2023-02-26T04:37:01.109Z,-4.80
2023-02-26T04:39:28.090Z,-4.70
2023-02-26T04:41:55.131Z,-4.60
2023-02-26T04:44:22.178Z,-4.80
2023-02-26T04:46:49.111Z,-4.80
2023-02-26T04:49:16.107Z,-4.90
2023-02-26T04:51:42.997Z,-5.10
2023-02-26T04:54:09.936Z,-5.20
2023-02-26T04:56:36.852Z,-5.30
2023-02-26T04:59:03.929Z,-5.40
2023-02-26T05:01:31.632Z,-5.30
2023-02-26T05:03:58.645Z,-5.20
2023-02-26T05:06:26.108Z,-5.10
2023-02-26T05:08:53.871Z,-5.00
2023-02-26T05:11:21.011Z,-4.90
2023-02-26T05:13:47.902Z,-4.90
2023-02-26T05:16:14.886Z,-4.90
2023-02-26T05:18:41.860Z,-4.90
2023-02-26T05:21:08.771Z,-4.80
2023-02-26T05:23:35.785Z,-4.70
2023-02-26T05:26:02.760Z,-4.70
2023-02-26T05:28:29.780Z,-4.60
2023-02-26T05:30:58.481Z,-4.50
2023-02-26T05:33:27.182Z,-4.40
2023-02-26T05:35:54.264Z,-4.30
2023-02-26T05:38:21.133Z,-4.20
2023-02-26T05:40:48.122Z,-4.20
2023-02-26T05:43:15.444Z,-4.10
2023-02-26T05:45:42.380Z,-4.10
2023-02-26T05:48:11.007Z,-4.10
2023-02-26T05:50:38.105Z,-4.10
2023-02-26T05:53:05.108Z,-4.00
2023-02-26T05:55:32.220Z,-4.00
2023-02-26T05:57:59.166Z,-4.00
2023-02-26T06:00:26.689Z,-3.90
2023-02-26T06:02:54.006Z,-3.90
2023-02-26T06:05:20.982Z,-4.00
2023-02-26T06:07:47.982Z,-4.10
2023-02-26T06:10:15.101Z,-4.20
2023-02-26T06:12:42.022Z,-4.30
2023-02-26T06:15:10.730Z,-4.30
2023-02-26T06:17:40.697Z,-4.40
2023-02-26T06:20:10.815Z,-4.60
2023-02-26T06:22:37.742Z,-4.60
2023-02-26T06:25:05.881Z,-4.70
2023-02-26T06:27:32.779Z,-4.70
2023-02-26T06:29:59.800Z,-4.60
2023-02-26T06:32:29.014Z,-4.60
2023-02-26T06:34:57.659Z,-4.60
2023-02-26T06:37:24.985Z,-4.50
2023-02-26T06:39:51.931Z,-4.50
2023-02-26T06:42:20.155Z,-4.40
2023-02-26T06:44:47.232Z,-4.40
2023-02-26T06:47:14.400Z,-4.40
2023-02-26T06:49:41.294Z,-4.40
2023-02-26T06:52:08.367Z,-4.30
2023-02-26T06:54:35.404Z,-4.30
2023-02-26T06:57:03.185Z,-4.20
2023-02-26T06:59:30.123Z,-4.20
2023-02-26T07:01:57.535Z,-4.10
2023-02-26T07:04:24.845Z,-4.00
2023-02-26T07:06:52.222Z,-3.90
2023-02-26T07:09:20.362Z,-3.70
2023-02-26T07:11:47.401Z,-3.60
2023-02-26T07:14:14.440Z,-3.10
2023-02-26T07:16:41.370Z,-2.60
2023-02-26T07:19:08.311Z,-1.90
2023-02-26T07:21:35.196Z,-1.70
2023-02-26T07:24:02.109Z,-1.70
2023-02-26T07:26:29.040Z,-1.80
2023-02-26T07:28:55.927Z,-1.80
2023-02-26T07:31:22.954Z,-1.70
2023-02-26T07:33:52.791Z,-1.70
2023-02-26T07:36:19.810Z,-1.50
2023-02-26T07:38:46.679Z,-1.50
2023-02-26T07:41:13.580Z,-1.50
2023-02-26T07:43:40.561Z,-1.50
2023-02-26T07:46:07.537Z,-1.40
2023-02-26T07:48:35.019Z,-1.40
2023-02-26T07:51:01.949Z,-1.60
2023-02-26T07:53:28.952Z,-1.60
2023-02-26T07:55:55.843Z,-1.60
2023-02-26T07:58:22.729Z,-1.60
2023-02-26T08:00:49.917Z,-1.60
2023-02-26T08:03:16.977Z,-1.60
2023-02-26T08:05:43.965Z,-1.30
2023-02-26T08:08:15.956Z,-0.90
2023-02-26T08:10:43.283Z,-0.50
2023-02-26T08:13:10.761Z,0.10
2023-02-26T08:15:37.815Z,0.20
2023-02-26T08:18:04.855Z,0.00
2023-02-26T08:20:31.827Z,0.00
2023-02-26T08:22:58.829Z,0.00
2023-02-26T08:25:25.769Z,-0.30
2023-02-26T08:27:52.826Z,0.10
2023-02-26T08:30:20.192Z,0.70
2023-02-26T08:32:47.212Z,1.50
2023-02-26T08:35:14.152Z,2.40
2023-02-26T08:37:41.463Z,2.30
2023-02-26T08:40:10.594Z,3.10
2023-02-26T08:42:37.919Z,3.00
2023-02-26T08:45:05.958Z,2.70
2023-02-26T08:47:32.978Z,3.30
2023-02-26T08:50:00.962Z,4.20
2023-02-26T08:52:27.822Z,3.80
2023-02-26T08:54:54.697Z,3.70
2023-02-26T08:57:21.816Z,3.20
2023-02-26T08:59:48.701Z,2.40
2023-02-26T09:03:41.544Z,2.10
2023-02-26T09:06:08.541Z,2.60
2023-02-26T09:08:35.593Z,2.90
2023-02-26T09:11:03.925Z,4.10
2023-02-26T09:13:31.181Z,4.30
2023-02-26T09:15:59.338Z,4.70
2023-02-26T09:18:26.397Z,5.80
2023-02-26T09:20:53.348Z,6.10
2023-02-26T09:23:20.317Z,6.40
2023-02-26T09:25:54.696Z,6.90
2023-02-26T09:28:25.307Z,7.60
2023-02-26T09:30:56.562Z,8.10
2023-02-26T09:33:23.930Z,7.90
2023-02-26T09:35:53.926Z,8.20
2023-02-26T09:38:24.818Z,8.40
2023-02-26T09:41:04.629Z,8.80
2023-02-26T09:44:07.577Z,7.60
2023-02-26T09:47:17.014Z,8.20
2023-02-26T09:50:34.572Z,8.80
2023-02-26T09:53:32.384Z,10.20
2023-02-26T09:56:36.927Z,10.10
2023-02-26T09:59:04.163Z,9.10
2023-02-26T10:01:54.507Z,8.80
2023-02-26T10:05:54.081Z,7.70
2023-02-26T10:08:36.637Z,7.20
2023-02-26T10:11:23.984Z,6.50
2023-02-26T10:14:02.768Z,7.70
2023-02-26T10:16:41.592Z,10.40
2023-02-26T10:19:23.038Z,11.30
2023-02-26T10:22:23.922Z,10.50
2023-02-26T10:25:12.985Z,8.60
2023-02-26T10:28:20.297Z,8.90
2023-02-26T10:31:22.811Z,7.60
2023-02-26T10:34:17.237Z,5.80
2023-02-26T10:37:51.101Z,5.00
2023-02-26T10:40:55.352Z,7.40
2023-02-26T10:43:47.784Z,7.80
2023-02-26T10:47:05.644Z,6.60
2023-02-26T10:50:01.915Z,5.10
2023-02-26T10:52:33.939Z,5.00
2023-02-26T10:55:59.519Z,5.10
2023-02-26T10:58:27.414Z,5.00
2023-02-26T11:00:56.982Z,4.90
2023-02-26T11:03:38.960Z,6.30
2023-02-26T11:06:07.822Z,6.50
2023-02-26T11:08:50.446Z,5.10
2023-02-26T11:11:51.084Z,4.40
2023-02-26T11:14:21.665Z,3.90
2023-02-26T11:16:58.069Z,3.60
2023-02-26T11:19:50.588Z,4.00
2023-02-26T11:22:18.581Z,4.70
2023-02-26T11:24:50.437Z,6.20
2023-02-26T11:27:34.328Z,5.30
2023-02-26T11:30:19.008Z,4.80
2023-02-26T11:32:52.512Z,4.60
2023-02-26T11:35:26.935Z,7.50
2023-02-26T11:38:02.814Z,10.40
2023-02-26T11:40:42.450Z,13.00
2023-02-26T11:43:20.339Z,14.00
2023-02-26T11:46:01.304Z,12.40
2023-02-26T11:48:52.575Z,11.70
2023-02-26T11:51:27.425Z,12.40
2023-02-26T11:54:02.204Z,13.10
2023-02-26T11:56:39.043Z,13.70
2023-02-26T11:59:25.451Z,14.20
2023-02-26T12:01:54.104Z,14.00
2023-02-26T12:04:27.864Z,14.20
2023-02-26T12:06:56.435Z,14.30
2023-02-26T12:09:27.110Z,14.90
2023-02-26T12:12:28.725Z,15.80
2023-02-26T12:15:27.609Z,16.70
2023-02-26T12:18:49.860Z,15.20
2023-02-26T12:22:23.216Z,15.70
2023-02-26T12:25:27.358Z,13.70
2023-02-26T12:28:36.293Z,10.00
2023-02-26T12:32:04.686Z,5.90
2023-02-26T12:35:32.208Z,3.40
2023-02-26T12:38:35.080Z,2.90
2023-02-26T12:41:31.851Z,6.50
2023-02-26T12:44:31.905Z,7.20
2023-02-26T12:47:22.524Z,6.70
2023-02-26T12:50:28.802Z,5.40
2023-02-26T12:53:40.265Z,4.50
2023-02-26T12:56:40.135Z,3.90
2023-02-26T13:00:06.201Z,4.10
2023-02-26T13:03:32.509Z,4.60
2023-02-26T13:06:55.375Z,3.80
2023-02-26T13:10:01.849Z,3.40
2023-02-26T13:13:14.213Z,5.30
2023-02-26T13:16:24.990Z,9.20
2023-02-26T13:19:21.558Z,12.00
2023-02-26T13:22:02.825Z,13.10
2023-02-26T13:25:05.034Z,10.20
2023-02-26T13:27:38.425Z,6.70
2023-02-26T13:30:45.694Z,4.60
2023-02-26T13:33:26.162Z,3.50
2023-02-26T13:35:56.846Z,2.70
2023-02-26T13:39:16.493Z,2.50
2023-02-26T13:43:04.868Z,3.00
2023-02-26T13:46:12.281Z,3.70
2023-02-26T13:49:34.404Z,6.30
2023-02-26T13:52:01.473Z,6.60
2023-02-26T13:54:41.326Z,8.60
2023-02-26T13:57:33.010Z,11.30
2023-02-26T14:00:13.035Z,9.90
2023-02-26T14:02:56.049Z,7.20
2023-02-26T14:05:46.696Z,4.90
2023-02-26T14:08:39.207Z,6.90
2023-02-26T14:12:01.042Z,7.90
2023-02-26T14:15:00.221Z,6.10
2023-02-26T14:18:00.912Z,5.10
2023-02-26T14:20:34.498Z,4.00
2023-02-26T14:23:14.248Z,3.50
2023-02-26T14:25:52.708Z,3.00
2023-02-26T14:28:25.752Z,2.70
2023-02-26T14:31:22.068Z,2.80
2023-02-26T14:34:16.945Z,4.30
2023-02-26T14:36:56.115Z,3.30
2023-02-26T14:39:42.885Z,2.80
2023-02-26T14:42:48.788Z,2.50
2023-02-26T14:45:39.622Z,2.60
2023-02-26T14:48:18.780Z,4.90
2023-02-26T14:51:38.856Z,7.90
2023-02-26T14:54:32.347Z,10.20
2023-02-26T14:57:56.472Z,10.70
2023-02-26T15:00:57.014Z,9.10
2023-02-26T15:04:09.273Z,5.60
2023-02-26T15:07:21.563Z,2.90
2023-02-26T15:11:00.663Z,1.40
2023-02-26T15:14:22.020Z,0.70
2023-02-26T15:17:19.520Z,0.40
2023-02-26T15:20:37.984Z,0.30
2023-02-26T15:23:56.009Z,0.20
2023-02-26T15:26:34.000Z,0.10
2023-02-26T15:29:09.957Z,-0.10
2023-02-26T15:32:01.081Z,-0.20
2023-02-26T15:34:29.044Z,-0.30
2023-02-26T15:36:58.260Z,-0.30
2023-02-26T15:39:26.202Z,-0.30
2023-02-26T15:41:55.998Z,-0.20
2023-02-26T15:44:32.235Z,0.00
2023-02-26T15:47:04.412Z,0.20
2023-02-26T15:49:43.139Z,0.90
2023-02-26T15:52:22.595Z,2.50
2023-02-26T15:55:05.898Z,3.90
2023-02-26T15:57:33.248Z,4.60
2023-02-26T16:00:24.560Z,4.00
2023-02-26T16:02:58.886Z,3.30
2023-02-26T16:05:27.941Z,2.80
2023-02-26T16:07:56.806Z,1.70
2023-02-26T16:10:40.662Z,1.10
2023-02-26T16:13:16.060Z,0.70
2023-02-26T16:15:44.433Z,0.40
2023-02-26T16:18:24.491Z,0.60
2023-02-26T16:20:58.893Z,0.80
2023-02-26T16:23:46.734Z,1.60
2023-02-26T16:26:27.121Z,2.20
2023-02-26T16:29:11.354Z,2.70
2023-02-26T16:31:43.914Z,3.00
2023-02-26T16:34:54.052Z,2.60
2023-02-26T16:37:28.458Z,2.30
2023-02-26T16:40:27.434Z,2.00
2023-02-26T16:43:23.703Z,1.70
2023-02-26T16:45:56.620Z,1.30
2023-02-26T16:48:27.026Z,0.60
2023-02-26T16:51:14.843Z,0.00
2023-02-26T16:53:50.806Z,-0.40
2023-02-26T16:56:25.196Z,-0.70
2023-02-26T16:59:24.442Z,-0.90
2023-02-26T17:02:22.196Z,-1.00
2023-02-26T17:05:00.949Z,-1.10
2023-02-26T17:07:33.187Z,-1.10
2023-02-26T17:10:23.553Z,-1.20
2023-02-26T17:13:03.876Z,-1.40
2023-02-26T17:15:38.761Z,-1.50
2023-02-26T17:18:05.820Z,-1.60
2023-02-26T17:20:34.546Z,-1.50
2023-02-26T17:23:05.664Z,-1.50
2023-02-26T17:25:44.039Z,-1.40
2023-02-26T17:28:22.412Z,-1.30
2023-02-26T17:30:49.547Z,-1.30
2023-02-26T17:33:16.588Z,-1.20
2023-02-26T17:35:44.476Z,-1.20
2023-02-26T17:38:15.107Z,-1.20
2023-02-26T17:40:47.408Z,-1.30
2023-02-26T17:43:14.552Z,-1.30
2023-02-26T17:45:41.656Z,-1.40
2023-02-26T17:48:12.576Z,-1.50
2023-02-26T17:50:50.889Z,-1.50
2023-02-26T17:53:22.060Z,-1.60
2023-02-26T17:55:53.281Z,-1.70
2023-02-26T17:58:31.900Z,-1.80
2023-02-26T18:00:59.501Z,-2.00
2023-02-26T18:03:26.657Z,-2.20
2023-02-26T18:05:56.743Z,-2.40
2023-02-26T18:08:27.941Z,-2.50
2023-02-26T18:10:56.691Z,-2.40
2023-02-26T18:13:25.076Z,-2.50
2023-02-26T18:15:53.729Z,-2.60
2023-02-26T18:18:23.678Z,-2.70
2023-02-26T18:20:52.057Z,-2.70
2023-02-26T18:23:18.993Z,-2.80
2023-02-26T18:25:50.241Z,-2.80
2023-02-26T18:28:27.799Z,-2.80
2023-02-26T18:30:57.811Z,-2.80
2023-02-26T18:33:26.069Z,-2.80
2023-02-26T18:35:57.413Z,-2.80
2023-02-26T18:38:28.227Z,-2.80
2023-02-26T18:40:55.836Z,-2.80
2023-02-26T18:43:23.247Z,-2.80
2023-02-26T18:45:52.318Z,-2.70
2023-02-26T18:48:21.254Z,-2.60
2023-02-26T18:50:49.137Z,-2.50
2023-02-26T18:53:17.492Z,-2.30
2023-02-26T18:55:44.991Z,-2.20
2023-02-26T18:58:13.125Z,-2.10
2023-02-26T19:00:40.577Z,-2.00
2023-02-26T19:03:09.128Z,-1.90
2023-02-26T19:05:37.252Z,-1.90
2023-02-26T19:08:06.538Z,-1.90
2023-02-26T19:10:34.490Z,-2.10
2023-02-26T19:13:02.538Z,-2.20
2023-02-26T19:15:30.109Z,-2.40
2023-02-26T19:17:57.091Z,-2.60
2023-02-26T19:20:29.715Z,-2.70
2023-02-26T19:22:56.636Z,-2.80
2023-02-26T19:25:24.304Z,-2.80
2023-02-26T19:27:53.900Z,-2.80
2023-02-26T19:30:23.440Z,-2.90
2023-02-26T19:32:51.752Z,-3.00
2023-02-26T19:35:19.500Z,-3.00
2023-02-26T19:37:46.971Z,-3.10
2023-02-26T19:40:19.454Z,-3.10
2023-02-26T19:42:48.296Z,-3.20
2023-02-26T19:45:15.994Z,-3.20
2023-02-26T19:47:43.603Z,-3.30
2023-02-26T19:50:13.952Z,-3.30
2023-02-26T19:52:41.454Z,-3.40
2023-02-26T19:55:09.930Z,-3.40
2023-02-26T19:57:37.151Z,-3.20
2023-02-26T20:00:06.936Z,-3.10
2023-02-26T20:02:34.110Z,-3.00
2023-02-26T20:05:01.118Z,-3.00
2023-02-26T20:07:28.226Z,-3.00
2023-02-26T20:09:55.187Z,-3.00
2023-02-26T20:12:22.257Z,-3.00
2023-02-26T20:14:49.544Z,-3.10
2023-02-26T20:17:16.473Z,-3.10
2023-02-26T20:19:54.697Z,-3.20
2023-02-26T20:22:24.525Z,-3.20
2023-02-26T20:24:52.456Z,-3.20
2023-02-26T20:27:19.968Z,-3.20
2023-02-26T20:29:47.131Z,-3.20
2023-02-26T20:32:14.162Z,-3.30
2023-02-26T20:34:41.147Z,-3.30
2023-02-26T20:37:08.105Z,-3.30
2023-02-26T20:39:34.988Z,-3.40
2023-02-26T20:42:03.282Z,-3.40
2023-02-26T20:44:30.364Z,-3.50
2023-02-26T20:46:57.314Z,-3.50
2023-02-26T20:49:25.471Z,-3.50
2023-02-26T20:51:52.384Z,-3.50
2023-02-26T20:54:20.150Z,-3.60
2023-02-26T20:56:48.652Z,-3.70
2023-02-26T20:59:18.352Z,-3.70
2023-02-26T21:01:51.290Z,-3.80
2023-02-26T21:04:19.707Z,-3.80
2023-02-26T21:06:46.721Z,-3.80
2023-02-26T21:09:13.680Z,-3.80
2023-02-26T21:11:41.705Z,-3.90
2023-02-26T21:14:10.100Z,-3.90
2023-02-26T21:16:40.381Z,-3.90
2023-02-26T21:19:07.573Z,-3.90
2023-02-26T21:21:34.877Z,-3.90
2023-02-26T21:24:01.950Z,-3.90
2023-02-26T21:26:28.843Z,-3.90
2023-02-26T21:28:55.789Z,-4.00
2023-02-26T21:31:22.838Z,-4.10
2023-02-26T21:33:50.106Z,-4.10
2023-02-26T21:36:17.124Z,-4.10
2023-02-26T21:38:44.192Z,-4.10
2023-02-26T21:41:11.524Z,-4.20
2023-02-26T21:43:39.097Z,-4.10
2023-02-26T21:46:06.730Z,-4.10
2023-02-26T21:48:33.885Z,-4.10
2023-02-26T21:51:00.965Z,-4.10
2023-02-26T21:53:28.847Z,-4.10
2023-02-26T21:55:56.700Z,-4.20
2023-02-26T21:58:25.498Z,-4.10
2023-02-26T22:00:52.786Z,-4.20
2023-02-26T22:03:20.310Z,-4.20
2023-02-26T22:05:52.130Z,-4.20
2023-02-26T22:08:19.759Z,-4.20
2023-02-26T22:10:46.934Z,-4.20
2023-02-26T22:13:14.636Z,-4.30
2023-02-26T22:15:42.585Z,-4.40
2023-02-26T22:18:09.682Z,-4.40
2023-02-26T22:20:36.859Z,-4.30
2023-02-26T22:23:04.558Z,-4.30
2023-02-26T22:25:32.381Z,-4.10
2023-02-26T22:27:59.412Z,-4.10
2023-02-26T22:30:26.459Z,-4.20
2023-02-26T22:32:53.406Z,-4.20
2023-02-26T22:35:20.527Z,-4.20
2023-02-26T22:37:47.407Z,-4.20
2023-02-26T22:40:14.949Z,-4.30
2023-02-26T22:42:43.979Z,-4.30
2023-02-26T22:45:13.398Z,-4.40
2023-02-26T22:47:40.385Z,-4.40
2023-02-26T22:50:07.866Z,-4.50
2023-02-26T22:52:35.294Z,-4.50
2023-02-26T22:55:02.478Z,-4.50
2023-02-26T22:57:29.483Z,-4.40
2023-02-26T22:59:56.370Z,-4.40
2023-02-26T23:02:23.897Z,-4.30
2023-02-26T23:04:50.893Z,-4.30
2023-02-26T23:07:18.398Z,-4.30
2023-02-26T23:09:45.401Z,-4.30
2023-02-26T23:12:12.317Z,-4.20
2023-02-26T23:14:39.882Z,-4.20
2023-02-26T23:17:08.726Z,-4.20
2023-02-26T23:19:36.593Z,-4.20
2023-02-26T23:22:03.463Z,-4.20
2023-02-26T23:24:30.350Z,-4.20
2023-02-26T23:26:57.283Z,-4.20
2023-02-26T23:29:24.454Z,-4.20
2023-02-26T23:31:51.881Z,-4.20
2023-02-26T23:34:19.031Z,-4.20
2023-02-26T23:36:45.921Z,-4.30
2023-02-26T23:39:15.178Z,-4.30
2023-02-26T23:41:42.224Z,-4.30
2023-02-26T23:44:09.146Z,-4.30
2023-02-26T23:46:37.268Z,-4.50
2023-02-26T23:49:04.591Z,-4.50
2023-02-26T23:51:31.623Z,-4.40
2023-02-26T23:53:58.497Z,-4.40
2023-02-26T23:56:25.473Z,-4.50
2023-02-26T23:58:52.834Z,-4.40
